Time;durP1;ratioP1;P1;durP2;ratioP2;P2;SDS_P1;SDS_P2;PMS_P1;PMS_P2;Temp;Humidity;BMP_temperature;BMP_pressure;BME280_temperature;BME280_humidity;BME280_pressure;Samples;Min_cycle;Max_cycle;Signal;HPM_P1;HPM_P2
2022/01/11 00:00:35;;;;;;;33.47;19.47;;;1.20;99.90;;;;;;5034501;28;20194;-47
2022/01/11 00:03:15;;;;;;;31.93;18.60;;;1.20;99.90;;;;;;5036136;28;20184;-48
2022/01/11 00:05:57;;;;;;;31.23;18.37;;;1.10;99.90;;;;;;5033450;28;20204;-48
2022/01/11 00:08:33;;;;;;;30.53;18.07;;;1.10;99.90;;;;;;5033868;28;20222;-48
2022/01/11 00:11:05;;;;;;;36.40;20.17;;;1.10;99.90;;;;;;5051035;28;20185;-48
2022/01/11 00:13:39;;;;;;;30.57;17.70;;;1.10;99.90;;;;;;5051957;28;20177;-48
2022/01/11 00:16:07;;;;;;;31.70;18.90;;;1.10;99.90;;;;;;5052198;28;20185;-48
2022/01/11 00:18:34;;;;;;;30.57;18.10;;;1.10;99.90;;;;;;5034010;28;20193;-48
2022/01/11 00:21:00;;;;;;;31.47;18.17;;;1.10;99.90;;;;;;5033756;28;20220;-48
2022/01/11 00:25:54;;;;;;;33.10;17.93;;;1.10;99.90;;;;;;5050266;28;20212;-48
2022/01/11 00:28:21;;;;;;;32.33;18.60;;;1.10;99.90;;;;;;5050247;28;20185;-48
2022/01/11 00:31:07;;;;;;;33.37;18.83;;;1.10;99.90;;;;;;5036377;28;20650;-48
2022/01/11 00:33:38;;;;;;;31.13;17.77;;;1.10;99.90;;;;;;5050145;28;20221;-48
2022/01/11 00:36:07;;;;;;;32.23;19.80;;;1.20;99.90;;;;;;5050306;28;20230;-48
2022/01/11 00:38:35;;;;;;;35.77;19.73;;;1.20;99.90;;;;;;5033030;28;20181;-48
2022/01/11 00:41:05;;;;;;;34.90;19.33;;;1.20;99.90;;;;;;5033727;28;20208;-48
2022/01/11 00:43:34;;;;;;;32.70;20.07;;;1.20;99.90;;;;;;5050142;28;20182;-48
2022/01/11 00:46:00;;;;;;;30.47;18.80;;;1.20;99.90;;;;;;5033641;28;20219;-48
2022/01/11 00:48:27;;;;;;;34.13;18.63;;;1.20;99.90;;;;;;5049826;28;20271;-48
2022/01/11 00:50:54;;;;;;;31.50;19.87;;;1.20;99.90;;;;;;5049976;28;20275;-48
2022/01/11 00:53:20;;;;;;;32.83;19.03;;;1.20;99.90;;;;;;5033471;28;20323;-48
2022/01/11 00:55:47;;;;;;;32.13;19.43;;;1.20;99.90;;;;;;5049978;28;20287;-48
2022/01/11 00:58:17;;;;;;;30.53;18.53;;;1.20;99.90;;;;;;5049722;28;20192;-48
2022/01/11 01:00:43;;;;;;;31.83;18.73;;;1.20;99.90;;;;;;5033245;28;20248;-48
2022/01/11 01:03:09;;;;;;;32.40;20.83;;;1.20;99.90;;;;;;5033275;28;20200;-48
2022/01/11 01:05:35;;;;;;;31.37;18.20;;;1.20;99.90;;;;;;5049537;28;20212;-48
2022/01/11 01:08:02;;;;;;;34.57;20.17;;;1.20;99.90;;;;;;5049684;28;20199;-48
2022/01/11 01:10:40;;;;;;;31.50;18.53;;;1.20;99.90;;;;;;5033511;28;20192;-48
2022/01/11 01:13:13;;;;;;;35.27;19.53;;;1.20;99.90;;;;;;5049289;28;20279;-48
2022/01/11 01:15:42;;;;;;;30.37;18.80;;;1.20;99.90;;;;;;5033434;28;20201;-48
2022/01/11 01:18:22;;;;;;;35.47;18.80;;;1.20;99.90;;;;;;5034476;28;20176;-48
2022/01/11 01:20:49;;;;;;;32.43;20.17;;;1.20;99.90;;;;;;5049790;28;20272;-48
2022/01/11 01:23:15;;;;;;;33.77;20.60;;;1.20;99.90;;;;;;5032952;28;20183;-48
2022/01/11 01:25:43;;;;;;;36.93;19.77;;;1.30;99.90;;;;;;5033004;28;20200;-48
2022/01/11 01:28:09;;;;;;;34.17;20.00;;;1.30;99.90;;;;;;5033119;28;20181;-48
2022/01/11 01:30:36;;;;;;;36.10;20.20;;;1.30;99.90;;;;;;5032750;28;20186;-48
2022/01/11 01:33:03;;;;;;;45.97;21.20;;;1.30;99.90;;;;;;5049585;28;20184;-48
2022/01/11 01:38:08;;;;;;;34.73;19.13;;;1.20;99.90;;;;;;5047698;28;20204;-34
2022/01/11 01:40:40;;;;;;;29.87;18.37;;;1.20;99.90;;;;;;5049369;28;20188;-31
2022/01/11 01:43:08;;;;;;;31.77;18.83;;;1.20;99.90;;;;;;5049406;28;20180;-30
2022/01/11 01:45:35;;;;;;;29.37;18.60;;;1.20;99.90;;;;;;5049585;28;20223;-31
2022/01/11 01:48:02;;;;;;;34.37;20.27;;;1.20;99.90;;;;;;5032603;28;20193;-30
2022/01/11 01:50:29;;;;;;;37.53;20.50;;;1.20;99.90;;;;;;5032825;28;20185;-31
2022/01/11 01:52:58;;;;;;;36.07;20.53;;;1.20;99.90;;;;;;5032752;28;20253;-30
2022/01/11 01:55:25;;;;;;;34.50;19.27;;;1.30;99.90;;;;;;5032622;28;20212;-32
2022/01/11 01:57:52;;;;;;;36.63;20.23;;;1.30;99.90;;;;;;5032695;28;20224;-31
2022/01/11 02:00:20;;;;;;;31.30;18.67;;;1.30;99.90;;;;;;5032733;28;20181;-32
2022/01/11 02:02:46;;;;;;;32.63;18.97;;;1.30;99.90;;;;;;5033110;28;20221;-32
2022/01/11 02:05:12;;;;;;;34.33;19.70;;;1.20;99.90;;;;;;5032877;28;20287;-32
2022/01/11 02:07:38;;;;;;;35.37;19.80;;;1.20;99.90;;;;;;5049033;28;20189;-32
2022/01/11 02:10:06;;;;;;;31.17;20.00;;;1.20;99.90;;;;;;5032397;28;20255;-33
2022/01/11 02:12:32;;;;;;;34.07;19.03;;;1.20;99.90;;;;;;5032545;28;20185;-32
2022/01/11 02:15:00;;;;;;;33.37;20.13;;;1.20;99.90;;;;;;5032802;28;20201;-33
2022/01/11 02:17:27;;;;;;;32.53;19.60;;;1.20;99.90;;;;;;5048915;28;20181;-31
2022/01/11 02:19:55;;;;;;;31.77;18.60;;;1.30;99.90;;;;;;5048911;28;20264;-32
2022/01/11 02:22:24;;;;;;;37.50;19.40;;;1.20;99.90;;;;;;5049290;28;20240;-31
2022/01/11 02:24:50;;;;;;;32.67;19.13;;;1.20;99.90;;;;;;5032118;28;20197;-32
2022/01/11 02:27:16;;;;;;;34.57;19.57;;;1.20;99.90;;;;;;5032380;28;20182;-31
2022/01/11 02:29:43;;;;;;;38.23;19.73;;;1.20;99.90;;;;;;5035124;28;20177;-31
2022/01/11 02:32:10;;;;;;;34.80;20.67;;;1.20;99.90;;;;;;5036056;28;20188;-32
2022/01/11 02:34:37;;;;;;;30.70;19.50;;;1.20;99.90;;;;;;5035999;28;20201;-32
2022/01/11 02:37:23;;;;;;;37.40;20.13;;;1.20;99.90;;;;;;5038477;28;20196;-35
2022/01/11 02:40:14;;;;;;;34.50;20.07;;;1.20;99.90;;;;;;5052483;28;20268;-31
2022/01/11 02:42:39;;;;;;;31.13;18.93;;;1.20;99.90;;;;;;5035792;28;20220;-31
2022/01/11 02:45:18;;;;;;;36.10;19.47;;;1.20;99.90;;;;;;5035788;28;20196;-30
2022/01/11 02:47:46;;;;;;;35.67;20.30;;;1.30;99.90;;;;;;5035353;28;20177;-31
2022/01/11 02:50:13;;;;;;;33.43;20.37;;;1.30;99.90;;;;;;5035717;28;20185;-32
2022/01/11 02:52:44;;;;;;;33.27;19.80;;;1.30;99.90;;;;;;5036335;28;20299;-30
2022/01/11 02:55:13;;;;;;;31.93;20.10;;;1.30;99.90;;;;;;5035448;28;20215;-30
2022/01/11 02:57:40;;;;;;;31.23;19.07;;;1.30;99.90;;;;;;5035524;28;20186;-31
2022/01/11 03:00:19;;;;;;;34.47;20.43;;;1.30;99.90;;;;;;5051881;28;20184;-30
2022/01/11 03:02:45;;;;;;;35.87;19.23;;;1.30;99.90;;;;;;5052102;28;20209;-32
2022/01/11 03:05:13;;;;;;;32.10;18.93;;;1.20;99.90;;;;;;5035865;28;20215;-32
2022/01/11 03:07:41;;;;;;;33.20;20.33;;;1.20;99.90;;;;;;5035202;28;20611;-33
2022/01/11 03:10:32;;;;;;;32.97;20.00;;;1.20;99.90;;;;;;5035259;28;20181;-31
2022/01/11 03:13:05;;;;;;;33.13;19.63;;;1.20;99.90;;;;;;5052036;28;20196;-32
2022/01/11 03:15:31;;;;;;;32.37;19.37;;;1.10;99.90;;;;;;5050336;23;20232;-88
2022/01/11 03:18:28;;;;;;;32.20;19.30;;;1.10;99.90;;;;;;5035833;28;20225;-89
2022/01/11 03:20:54;;;;;;;35.47;19.43;;;1.10;99.90;;;;;;5053858;28;20220;-89
2022/01/11 03:23:21;;;;;;;33.60;19.70;;;1.20;99.90;;;;;;5037580;28;20177;-89
2022/01/11 03:25:51;;;;;;;28.60;18.40;;;1.20;99.90;;;;;;5037839;28;20177;-89
2022/01/11 03:28:18;;;;;;;30.83;19.10;;;1.20;99.90;;;;;;5037494;28;20174;-89
2022/01/11 03:30:45;;;;;;;32.27;19.93;;;1.20;99.90;;;;;;5037483;28;20238;-89
2022/01/11 03:33:11;;;;;;;29.50;18.77;;;1.20;99.90;;;;;;5037340;28;20181;-89
2022/01/11 03:35:41;;;;;;;34.30;19.17;;;1.20;99.90;;;;;;5037249;28;20177;-89
2022/01/11 03:38:09;;;;;;;33.83;20.13;;;1.20;99.90;;;;;;5036859;28;20641;-89
2022/01/11 03:40:35;;;;;;;31.93;18.40;;;1.20;99.90;;;;;;5037123;28;20181;-89
2022/01/11 03:43:04;;;;;;;31.10;18.43;;;1.20;99.90;;;;;;5037586;28;20273;-89
2022/01/11 03:45:31;;;;;;;29.57;18.20;;;1.20;99.90;;;;;;5037505;28;20196;-89
2022/01/11 03:48:04;;;;;;;36.30;19.90;;;1.20;99.90;;;;;;5037731;28;20176;-89
2022/01/11 03:50:31;;;;;;;33.07;19.57;;;1.30;99.90;;;;;;5037141;28;20178;-89
2022/01/11 03:53:06;;;;;;;32.67;18.53;;;1.30;99.90;;;;;;5053701;28;20177;-89
2022/01/11 03:55:46;;;;;;;33.60;18.20;;;1.30;99.90;;;;;;5053467;28;20173;-89
2022/01/11 03:58:15;;;;;;;35.80;19.17;;;1.30;99.90;;;;;;5053708;28;20243;-89
2022/01/11 04:00:43;;;;;;;35.17;20.40;;;1.30;99.90;;;;;;5053324;28;20534;-89
2022/01/11 04:03:09;;;;;;;34.73;19.83;;;1.30;99.90;;;;;;5053311;28;20211;-89
2022/01/11 04:05:36;;;;;;;34.70;19.60;;;1.40;99.90;;;;;;5053481;28;20180;-89
2022/01/11 04:08:03;;;;;;;34.87;20.43;;;1.40;99.90;;;;;;5052882;28;20209;-89
2022/01/11 04:10:29;;;;;;;31.93;18.40;;;1.40;99.90;;;;;;5053428;28;20181;-89
2022/01/11 04:12:55;;;;;;;34.17;19.07;;;1.40;99.90;;;;;;5053082;28;20181;-89
2022/01/11 04:15:22;;;;;;;35.20;20.90;;;1.40;99.90;;;;;;5053081;28;20182;-90
2022/01/11 04:17:48;;;;;;;36.37;21.13;;;1.40;99.90;;;;;;5053069;28;20196;-89
2022/01/11 04:20:14;;;;;;;34.93;20.83;;;1.40;99.90;;;;;;5050254;28;20186;-89
2022/01/11 04:22:41;;;;;;;36.43;21.07;;;1.40;99.90;;;;;;5032678;28;20300;-89
2022/01/11 04:25:08;;;;;;;36.47;20.17;;;1.40;99.90;;;;;;5032149;28;20529;-89
2022/01/11 04:27:34;;;;;;;37.00;21.07;;;1.40;99.90;;;;;;5032299;28;20193;-89
2022/01/11 04:30:03;;;;;;;33.00;19.77;;;1.40;99.90;;;;;;5032923;28;20232;-89
2022/01/11 04:32:30;;;;;;;34.70;20.73;;;1.40;99.90;;;;;;5032700;28;20225;-89
2022/01/11 04:34:57;;;;;;;32.33;19.10;;;1.40;99.90;;;;;;5032966;28;20190;-89
2022/01/11 04:37:23;;;;;;;43.27;22.50;;;1.40;99.90;;;;;;5032678;28;20182;-89
2022/01/11 04:39:49;;;;;;;34.17;19.63;;;1.40;99.90;;;;;;5032333;28;20185;-89
2022/01/11 04:42:17;;;;;;;34.47;19.47;;;1.50;99.90;;;;;;5032415;28;20748;-89
2022/01/11 04:44:43;;;;;;;31.70;19.77;;;1.50;99.90;;;;;;5032900;28;20186;-89
2022/01/11 04:47:20;;;;;;;35.47;20.70;;;1.50;99.90;;;;;;5032036;28;20630;-89
2022/01/11 04:49:46;;;;;;;33.13;19.47;;;1.50;99.90;;;;;;5032127;28;20166;-89
2022/01/11 04:52:12;;;;;;;35.47;20.33;;;1.50;99.90;;;;;;5051285;28;20209;-89
2022/01/11 04:54:40;;;;;;;35.07;19.53;;;1.50;99.90;;;;;;5035885;28;20177;-89
2022/01/11 04:57:07;;;;;;;33.37;20.20;;;1.50;99.90;;;;;;5035428;28;20185;-89
2022/01/11 04:59:48;;;;;;;34.37;20.47;;;1.50;99.90;;;;;;5034758;28;20205;-89
2022/01/11 05:02:16;;;;;;;32.83;19.47;;;1.50;99.90;;;;;;5030153;28;20292;-89
2022/01/11 05:04:43;;;;;;;33.03;21.10;;;1.50;99.90;;;;;;5037543;28;20178;-89
2022/01/11 05:07:09;;;;;;;36.17;20.57;;;1.50;99.90;;;;;;5044946;28;20185;-89
2022/01/11 05:09:38;;;;;;;34.73;20.10;;;1.60;99.90;;;;;;5052085;28;20174;-89
2022/01/11 05:12:06;;;;;;;35.20;20.13;;;1.60;99.90;;;;;;5051841;28;20288;-88
2022/01/11 05:14:32;;;;;;;35.13;20.50;;;1.60;99.90;;;;;;5051495;28;20214;-89
2022/01/11 05:16:58;;;;;;;35.20;20.33;;;1.60;99.90;;;;;;5050743;28;20217;-89
2022/01/11 05:19:25;;;;;;;34.70;20.33;;;1.60;99.90;;;;;;5050698;28;20366;-89
2022/01/11 05:21:50;;;;;;;35.77;20.30;;;1.60;99.90;;;;;;5051957;28;20281;-89
2022/01/11 05:24:17;;;;;;;37.43;21.20;;;1.60;99.90;;;;;;5035692;28;20235;-89
2022/01/11 05:26:46;;;;;;;31.60;19.63;;;1.60;99.90;;;;;;5035943;28;20182;-89
2022/01/11 05:29:12;;;;;;;35.53;21.60;;;1.60;99.90;;;;;;5035481;28;20252;-89
2022/01/11 05:31:39;;;;;;;31.53;19.73;;;1.60;99.90;;;;;;5035681;28;20204;-89
2022/01/11 05:34:06;;;;;;;31.97;19.47;;;1.60;99.90;;;;;;5035575;28;20181;-89
2022/01/11 05:36:31;;;;;;;30.53;19.43;;;1.60;99.90;;;;;;5035600;28;20182;-89
2022/01/11 05:39:25;;;;;;;34.67;18.97;;;1.60;99.90;;;;;;5034939;28;20553;-89
2022/01/11 05:41:52;;;;;;;28.50;17.87;;;1.60;99.90;;;;;;5031913;28;20206;-89
2022/01/11 05:44:18;;;;;;;30.60;18.83;;;1.60;99.90;;;;;;5025395;28;20262;-89
2022/01/11 05:46:45;;;;;;;32.03;19.43;;;1.60;99.90;;;;;;5032158;28;20265;-89
2022/01/11 05:49:12;;;;;;;32.87;19.47;;;1.60;99.90;;;;;;5032097;28;20238;-89
2022/01/11 05:51:40;;;;;;;34.07;20.03;;;1.60;99.90;;;;;;5035183;28;20216;-89
2022/01/11 05:54:08;;;;;;;33.80;20.03;;;1.50;99.90;;;;;;5031998;28;20182;-89
2022/01/11 05:56:34;;;;;;;32.67;18.17;;;1.50;99.90;;;;;;5015644;28;20185;-89
2022/01/11 05:59:03;;;;;;;35.07;20.63;;;1.50;99.90;;;;;;5029651;28;20173;-89
2022/01/11 06:01:33;;;;;;;30.77;19.27;;;1.50;99.90;;;;;;5037845;28;20204;-89
2022/01/11 06:04:00;;;;;;;34.33;20.83;;;1.50;99.90;;;;;;5019659;28;20170;-89
2022/01/11 06:06:26;;;;;;;32.70;19.63;;;1.40;99.90;;;;;;5035902;28;20185;-89
2022/01/11 06:08:53;;;;;;;33.23;19.83;;;1.40;99.90;;;;;;5035753;28;20247;-90
2022/01/11 06:11:19;;;;;;;32.50;19.67;;;1.40;99.90;;;;;;5035132;28;20233;-87
2022/01/11 06:13:50;;;;;;;36.47;19.80;;;1.40;99.90;;;;;;5019097;28;20273;-88
2022/01/11 06:16:18;;;;;;;29.43;18.13;;;1.50;99.90;;;;;;5018873;28;20228;-88
2022/01/11 06:18:45;;;;;;;35.70;19.50;;;1.50;99.90;;;;;;5018948;28;20197;-87
2022/01/11 06:21:25;;;;;;;35.97;20.13;;;1.50;99.90;;;;;;5033253;28;20213;-88
2022/01/11 06:23:52;;;;;;;30.77;18.60;;;1.50;99.90;;;;;;5038673;28;20180;-87
2022/01/11 06:26:19;;;;;;;29.67;18.70;;;1.60;99.90;;;;;;5038963;28;20180;-88
2022/01/11 06:28:45;;;;;;;32.87;18.73;;;1.60;99.90;;;;;;5038589;28;20174;-87
2022/01/11 06:31:11;;;;;;;35.47;19.53;;;1.60;99.90;;;;;;5038325;28;20197;-88
2022/01/11 06:33:38;;;;;;;28.80;18.47;;;1.60;99.90;;;;;;5038498;28;20178;-87
2022/01/11 06:36:10;;;;;;;32.83;19.70;;;1.60;99.90;;;;;;5038533;28;20185;-87
2022/01/11 06:38:39;;;;;;;29.73;18.30;;;1.60;99.90;;;;;;5037834;28;20179;-88
2022/01/11 06:41:05;;;;;;;35.40;19.63;;;1.60;99.90;;;;;;5037707;28;20212;-87
2022/01/11 06:43:31;;;;;;;32.03;19.13;;;1.60;99.90;;;;;;5035864;28;20185;-87
2022/01/11 06:45:57;;;;;;;32.73;19.60;;;1.60;99.90;;;;;;5035945;28;20181;-87
2022/01/11 06:48:34;;;;;;;33.50;18.50;;;1.60;99.90;;;;;;5036976;28;20213;-88
2022/01/11 06:51:13;;;;;;;39.10;20.73;;;1.60;99.90;;;;;;5028629;28;20255;-88
2022/01/11 06:53:47;;;;;;;35.53;20.97;;;1.70;99.90;;;;;;5019594;28;20185;-88
2022/01/11 06:56:13;;;;;;;35.20;20.60;;;1.70;99.90;;;;;;5018667;28;20182;-88
2022/01/11 06:58:39;;;;;;;40.10;20.57;;;1.60;99.90;;;;;;5015538;28;20205;-87
2022/01/11 07:01:06;;;;;;;34.13;20.00;;;1.70;99.90;;;;;;5015514;28;20214;-87
2022/01/11 07:03:34;;;;;;;35.53;20.07;;;1.60;99.90;;;;;;5016199;28;20204;-87
2022/01/11 07:06:27;;;;;;;30.40;19.83;;;1.60;99.90;;;;;;5028657;28;20182;-88
2022/01/11 07:08:53;;;;;;;36.87;19.87;;;1.60;99.90;;;;;;5015697;28;20181;-88
2022/01/11 07:11:23;;;;;;;32.63;19.37;;;1.60;99.90;;;;;;5016245;28;20213;-87
2022/01/11 07:13:51;;;;;;;31.93;20.17;;;1.50;99.90;;;;;;5015531;28;20261;-87
2022/01/11 07:16:17;;;;;;;34.40;19.53;;;1.50;99.90;;;;;;5015174;28;20197;-88
2022/01/11 07:18:44;;;;;;;34.67;18.90;;;1.60;99.90;;;;;;5015333;28;20194;-87
2022/01/11 07:21:11;;;;;;;34.13;18.27;;;1.50;99.90;;;;;;5022844;28;20221;-87
2022/01/11 07:23:37;;;;;;;31.00;18.70;;;1.50;99.90;;;;;;5031944;28;20181;-87
2022/01/11 07:26:07;;;;;;;31.33;18.20;;;1.50;99.90;;;;;;5031820;28;20209;-87
2022/01/11 07:28:34;;;;;;;32.10;18.33;;;1.50;99.90;;;;;;5031727;28;20178;-87
2022/01/11 07:31:05;;;;;;;32.90;20.53;;;1.60;99.90;;;;;;5031679;28;20214;-87
2022/01/11 07:33:37;;;;;;;36.53;21.00;;;1.60;99.90;;;;;;5032242;28;20175;-87
2022/01/11 07:36:04;;;;;;;40.57;21.87;;;1.60;99.90;;;;;;5032630;28;20235;-87
2022/01/11 07:38:31;;;;;;;37.90;21.17;;;1.60;99.90;;;;;;5032285;28;20746;-87
2022/01/11 07:40:57;;;;;;;34.37;20.00;;;1.60;99.90;;;;;;5032633;28;20297;-87
2022/01/11 07:43:36;;;;;;;37.53;20.63;;;1.60;99.90;;;;;;5032834;28;20186;-87
2022/01/11 07:46:12;;;;;;;33.60;19.47;;;1.60;99.90;;;;;;5032906;28;20174;-87
2022/01/11 07:48:44;;;;;;;32.50;18.33;;;1.60;99.90;;;;;;5031501;28;20307;-87
2022/01/11 07:51:10;;;;;;;33.57;19.07;;;1.70;99.90;;;;;;5031133;28;20710;-87
2022/01/11 07:53:36;;;;;;;40.00;20.53;;;1.60;99.90;;;;;;5031266;28;20217;-87
2022/01/11 07:56:08;;;;;;;30.53;19.60;;;1.70;99.90;;;;;;5031211;28;20209;-87
2022/01/11 07:58:34;;;;;;;38.40;20.87;;;1.60;99.90;;;;;;5031181;28;20184;-87
2022/01/11 08:01:00;;;;;;;38.17;20.40;;;1.70;99.90;;;;;;5031317;28;20201;-87
2022/01/11 08:03:32;;;;;;;48.73;23.33;;;1.60;99.90;;;;;;5031007;28;20201;-87
2022/01/11 08:06:04;;;;;;;38.87;21.87;;;1.70;99.90;;;;;;5031360;28;20319;-87
2022/01/11 08:08:31;;;;;;;40.87;22.07;;;1.70;99.90;;;;;;5030586;28;20238;-87
2022/01/11 08:10:59;;;;;;;34.47;21.57;;;1.70;99.90;;;;;;5031146;28;20317;-87
2022/01/11 08:13:26;;;;;;;35.87;20.63;;;1.70;99.90;;;;;;5030926;28;20185;-87
2022/01/11 08:15:53;;;;;;;38.03;21.13;;;1.70;99.90;;;;;;5030635;28;20196;-87
2022/01/11 08:18:19;;;;;;;35.93;19.23;;;1.70;99.90;;;;;;5030678;28;20181;-87
2022/01/11 08:20:47;;;;;;;39.40;22.67;;;1.80;99.90;;;;;;5030513;28;20190;-87
2022/01/11 08:23:16;;;;;;;41.77;22.40;;;1.80;99.90;;;;;;5030670;28;20183;-87
2022/01/11 08:25:42;;;;;;;39.87;21.50;;;1.80;99.90;;;;;;5030355;28;20232;-87
2022/01/11 08:28:09;;;;;;;35.60;21.17;;;1.90;99.90;;;;;;5030508;28;20205;-88
2022/01/11 08:30:37;;;;;;;34.83;21.03;;;1.90;99.90;;;;;;5030263;28;20196;-88
2022/01/11 08:33:07;;;;;;;37.93;22.17;;;1.90;99.90;;;;;;5030448;28;20226;-88
2022/01/11 08:35:33;;;;;;;42.70;22.00;;;1.90;99.90;;;;;;5030066;28;20223;-88
2022/01/11 08:37:59;;;;;;;42.50;22.87;;;2.00;99.90;;;;;;5032053;28;20205;-88
2022/01/11 08:40:29;;;;;;;36.10;20.20;;;2.00;99.90;;;;;;5032292;28;20201;-88
2022/01/11 08:43:03;;;;;;;39.90;22.87;;;2.10;99.90;;;;;;5033918;28;20208;-88
2022/01/11 08:45:33;;;;;;;40.43;22.67;;;2.10;99.90;;;;;;5033800;28;20181;-88
2022/01/11 08:48:04;;;;;;;41.77;23.23;;;2.10;99.90;;;;;;5049736;28;20174;-87
2022/01/11 08:50:35;;;;;;;42.13;22.07;;;2.10;99.90;;;;;;5041468;28;20193;-87
2022/01/11 08:53:02;;;;;;;37.50;20.47;;;2.20;99.90;;;;;;5040070;28;20183;-87
2022/01/11 08:55:28;;;;;;;40.00;21.40;;;2.20;99.90;;;;;;5041206;28;20259;-87
2022/01/11 08:57:55;;;;;;;38.53;21.00;;;2.30;99.90;;;;;;5049840;28;20181;-88
2022/01/11 09:00:22;;;;;;;36.10;21.87;;;2.30;99.90;;;;;;5042514;28;20194;-87
2022/01/11 09:02:54;;;;;;;37.93;20.77;;;2.40;99.90;;;;;;5030411;28;20210;-88
2022/01/11 09:05:36;;;;;;;38.00;20.93;;;2.40;99.90;;;;;;5015531;28;20193;-87
2022/01/11 09:08:06;;;;;;;39.00;20.67;;;2.50;99.90;;;;;;5032157;28;20175;-87
2022/01/11 09:10:32;;;;;;;36.33;20.00;;;2.50;99.90;;;;;;5032403;28;20232;-87
2022/01/11 09:12:58;;;;;;;38.80;20.97;;;2.50;99.90;;;;;;5030593;28;20213;-87
2022/01/11 09:15:27;;;;;;;38.73;20.67;;;2.50;99.90;;;;;;5031888;28;20684;-88
2022/01/11 09:17:55;;;;;;;43.60;20.67;;;2.50;99.90;;;;;;5029693;28;20604;-88
2022/01/11 09:20:21;;;;;;;35.43;20.80;;;2.50;99.90;;;;;;5033582;28;20235;-88
2022/01/11 09:22:48;;;;;;;33.40;19.40;;;2.50;99.90;;;;;;5032561;28;20229;-88
2022/01/11 09:25:15;;;;;;;33.80;19.73;;;2.50;99.90;;;;;;5033150;28;20184;-88
2022/01/11 09:28:02;;;;;;;37.13;20.17;;;2.50;99.90;;;;;;5050190;28;20181;-88
2022/01/11 09:30:30;;;;;;;32.80;19.63;;;2.50;99.90;;;;;;5049605;28;20223;-88
2022/01/11 09:32:57;;;;;;;30.37;18.10;;;2.60;99.90;;;;;;5033197;28;20182;-88
2022/01/11 09:35:25;;;;;;;37.00;19.67;;;2.70;99.90;;;;;;5035925;28;20264;-88
2022/01/11 09:38:01;;;;;;;34.43;19.43;;;2.70;99.90;;;;;;5035820;28;20189;-88
2022/01/11 09:40:27;;;;;;;37.93;20.10;;;2.70;99.90;;;;;;5037320;28;20565;-87
2022/01/11 09:43:00;;;;;;;36.50;21.03;;;2.70;99.90;;;;;;5053665;28;20236;-88
2022/01/11 09:45:27;;;;;;;39.80;20.57;;;2.70;99.90;;;;;;5037036;28;20269;-88
2022/01/11 09:47:53;;;;;;;33.33;19.77;;;2.80;99.90;;;;;;5025597;28;20210;-88
2022/01/11 09:50:20;;;;;;;35.00;19.63;;;2.80;99.90;;;;;;5042763;28;20224;-88
2022/01/11 09:53:09;;;;;;;33.27;18.83;;;2.90;99.90;;;;;;5031338;28;20170;-87
2022/01/11 09:55:41;;;;;;;33.67;18.80;;;3.00;99.90;;;;;;5043427;28;20183;-87
2022/01/11 09:58:11;;;;;;;31.97;18.23;;;3.00;99.90;;;;;;5019719;28;20179;-87
2022/01/11 10:00:50;;;;;;;32.40;16.83;;;3.10;99.90;;;;;;5033255;28;20182;-87
2022/01/11 10:04:08;;;;;;;32.30;18.10;;;3.10;99.90;;;;;;5033542;28;20198;-88
2022/01/11 10:06:58;;;;;;;31.57;17.20;;;3.20;99.90;;;;;;5033381;28;20269;-87
2022/01/11 10:09:28;;;;;;;30.73;16.47;;;3.20;99.90;;;;;;5032611;28;20212;-88
2022/01/11 10:11:57;;;;;;;27.27;17.03;;;3.20;99.90;;;;;;5032931;28;20195;-88
2022/01/11 10:14:31;;;;;;;29.60;15.73;;;3.30;99.90;;;;;;5037008;28;20174;-88
2022/01/11 10:17:10;;;;;;;23.90;15.03;;;3.40;99.90;;;;;;5024876;28;20809;-87
2022/01/11 10:19:42;;;;;;;26.47;15.40;;;3.50;99.90;;;;;;5024894;28;20200;-88
2022/01/11 10:22:15;;;;;;;25.37;13.83;;;3.50;99.90;;;;;;5041182;28;20278;-88
2022/01/11 10:24:54;;;;;;;22.23;13.17;;;3.60;99.90;;;;;;5041417;28;20171;-88
2022/01/11 10:27:35;;;;;;;21.53;12.73;;;3.70;99.90;;;;;;5029199;28;20179;-89
2022/01/11 10:30:10;;;;;;;19.17;11.53;;;3.80;99.90;;;;;;5041287;28;20661;-88
2022/01/11 10:32:46;;;;;;;17.93;11.43;;;3.80;99.90;;;;;;5041630;28;20197;-88
2022/01/11 10:35:31;;;;;;;18.37;10.87;;;3.90;99.90;;;;;;5024634;28;20189;-89
2022/01/11 10:38:03;;;;;;;18.23;10.87;;;4.00;99.90;;;;;;5036157;28;20229;-88
2022/01/11 10:40:40;;;;;;;21.67;12.73;;;4.10;99.90;;;;;;5023322;28;20178;-88
2022/01/11 10:43:17;;;;;;;17.90;10.73;;;4.20;99.90;;;;;;5027816;28;20194;-89
2022/01/11 10:45:58;;;;;;;15.37;9.73;;;4.40;99.90;;;;;;5043252;28;20197;-88
2022/01/11 10:48:28;;;;;;;12.63;8.40;;;4.60;99.90;;;;;;5040845;28;20233;-88
2022/01/11 10:51:02;;;;;;;14.33;9.13;;;4.80;99.90;;;;;;5033405;28;20201;-88
2022/01/11 10:53:38;;;;;;;11.80;8.87;;;4.80;99.90;;;;;;5051843;28;20218;-88
2022/01/11 10:56:09;;;;;;;9.60;6.27;;;5.00;99.90;;;;;;5035272;28;20530;-88
2022/01/11 10:59:11;;;;;;;8.33;5.40;;;5.10;99.90;;;;;;5038702;28;20174;-88
2022/01/11 11:01:45;;;;;;;8.07;5.70;;;5.30;99.90;;;;;;5040172;28;20293;-87
2022/01/11 11:04:31;;;;;;;7.83;5.03;;;5.50;99.90;;;;;;5042307;28;20183;-88
2022/01/11 11:07:13;;;;;;;6.00;3.20;;;5.60;99.90;;;;;;5032011;28;20274;-88
2022/01/11 11:09:50;;;;;;;5.67;3.30;;;5.70;99.90;;;;;;5026154;28;20642;-88
2022/01/11 11:12:23;;;;;;;3.23;2.80;;;5.50;99.90;;;;;;5040548;28;20200;-88
2022/01/11 11:15:09;;;;;;;6.20;3.83;;;5.60;99.90;;;;;;5048484;28;20222;-88
2022/01/11 11:17:43;;;;;;;4.40;2.87;;;5.50;99.90;;;;;;5041877;28;20198;-88
2022/01/11 11:20:27;;;;;;;3.27;2.70;;;5.40;99.90;;;;;;5042978;28;20196;-88
2022/01/11 11:22:57;;;;;;;3.30;2.70;;;5.50;99.90;;;;;;5040853;28;20210;-88
2022/01/11 11:25:24;;;;;;;5.17;2.70;;;5.50;99.90;;;;;;5040631;28;20227;-85
2022/01/11 11:27:52;;;;;;;5.93;2.50;;;5.60;99.90;;;;;;5039981;28;20495;-85
2022/01/11 11:30:19;;;;;;;4.53;2.20;;;5.70;99.90;;;;;;5031827;28;20300;-89
2022/01/11 11:32:54;;;;;;;4.60;2.53;;;5.80;99.90;;;;;;5032407;28;20235;-89
2022/01/11 11:35:21;;;;;;;5.87;2.60;;;5.90;99.90;;;;;;5033996;28;20192;-89
2022/01/11 11:37:48;;;;;;;4.03;2.40;;;6.10;99.90;;;;;;5033563;28;20184;-89
2022/01/11 11:40:18;;;;;;;3.57;2.43;;;6.20;99.90;;;;;;5033549;28;20253;-89
2022/01/11 11:42:45;;;;;;;6.47;2.50;;;6.30;99.90;;;;;;5034008;28;20220;-89
2022/01/11 11:45:21;;;;;;;3.43;2.40;;;6.20;99.90;;;;;;5017529;28;20178;-89
2022/01/11 11:47:47;;;;;;;4.30;2.53;;;6.30;99.90;;;;;;5033286;28;20178;-88
2022/01/11 11:50:17;;;;;;;6.93;2.87;;;6.40;99.90;;;;;;5017173;28;20252;-89
2022/01/11 11:52:54;;;;;;;3.17;2.40;;;6.50;99.90;;;;;;5033360;28;20724;-89
2022/01/11 11:55:27;;;;;;;3.37;2.60;;;6.60;99.90;;;;;;5033526;28;20174;-89
2022/01/11 11:57:55;;;;;;;4.93;2.70;;;6.60;99.90;;;;;;5037870;28;20204;-89
2022/01/11 12:00:24;;;;;;;4.43;2.80;;;6.70;99.90;;;;;;5053317;28;20272;-89
2022/01/11 12:02:53;;;;;;;3.10;2.27;;;6.70;99.90;;;;;;5053135;28;20275;-89
2022/01/11 12:05:45;;;;;;;3.37;2.27;;;6.60;99.90;;;;;;5053524;28;20184;-89
2022/01/11 12:08:36;;;;;;;3.00;2.43;;;6.70;99.90;;;;;;5052802;28;20185;-89
2022/01/11 12:11:11;;;;;;;2.27;1.60;;;6.60;99.90;;;;;;5036522;28;20545;-89
2022/01/11 12:13:52;;;;;;;2.50;1.77;;;6.60;99.90;;;;;;5053387;28;20174;-89
2022/01/11 12:16:25;;;;;;;5.37;2.37;;;6.50;99.90;;;;;;5052526;28;20207;-89
2022/01/11 12:19:05;;;;;;;2.97;2.17;;;6.50;99.90;;;;;;5050406;28;20177;-89
2022/01/11 12:21:54;;;;;;;3.90;1.93;;;6.50;99.90;;;;;;5020521;28;20321;-89
2022/01/11 12:24:46;;;;;;;5.27;1.87;;;6.50;99.90;;;;;;5014286;28;20221;-88
2022/01/11 12:27:15;;;;;;;2.63;2.17;;;6.50;99.90;;;;;;5030704;28;20225;-89
2022/01/11 12:29:53;;;;;;;2.37;1.77;;;6.50;99.90;;;;;;5014009;28;20205;-89
2022/01/11 12:32:20;;;;;;;3.87;2.00;;;6.50;99.90;;;;;;5030612;28;20216;-89
2022/01/11 12:34:46;;;;;;;2.27;1.50;;;6.40;99.90;;;;;;5013944;28;20243;-89
2022/01/11 12:37:31;;;;;;;1.70;1.60;;;6.20;99.90;;;;;;5013774;28;20181;-89
2022/01/11 12:40:03;;;;;;;3.13;1.90;;;6.10;99.90;;;;;;5013341;28;20186;-89
2022/01/11 12:42:29;;;;;;;4.90;2.00;;;6.00;99.90;;;;;;5030521;28;20225;-89
2022/01/11 12:47:39;;;;;;;3.67;1.83;;;5.70;99.90;;;;;;5030257;28;20300;-89
2022/01/11 12:50:07;;;;;;;3.40;2.37;;;5.70;99.90;;;;;;5015298;28;20185;-89
2022/01/11 12:52:35;;;;;;;2.50;2.20;;;5.50;99.90;;;;;;5035636;28;20228;-89
2022/01/11 12:55:02;;;;;;;2.57;2.27;;;5.50;99.90;;;;;;5026297;28;20204;-89
2022/01/11 12:57:30;;;;;;;3.57;2.40;;;5.50;99.90;;;;;;5022075;28;20330;-88
2022/01/11 13:00:01;;;;;;;4.33;2.60;;;5.50;99.90;;;;;;5015911;28;20181;-89
2022/01/11 13:02:34;;;;;;;4.00;2.83;;;5.50;99.90;;;;;;5015919;28;20220;-89
2022/01/11 13:05:10;;;;;;;4.00;2.77;;;5.50;99.90;;;;;;5015909;28;20213;-89